Pagrindinis puslapis
METAR-TAF:

METAR-TAF

Oro uostai :

Bauru, San Paulas, Brazilija

platuma: 22-19S, ilguma: 049-04W, Aukštis: 590 m

Dabartinis oras

Ataskaita buvo paskelbta 1 valandą ir 10 minutes, ne 21:00 UTC
Vėjas 4 kt iš Šiaurės
Temperatūra 34°C
Drėgmė 28%
Slėgis 1014 hPa
Matomumas: 6000 m

METAR: SBBU 162100Z 35004KT 6000 NSC 34/13 Q1014

Laikas: 19:10 (22:10 UTC)

Prognozė

Ataskaita buvo paskelbta 6 valandos ir 10 minutes, ne 16:00 UTC
Prognozė galioja nuo 16 metu 18 UTC su 17 metu 06 UTC
Vėjas 7 kt iš Šiaurės Rytų
Matomumas 10 km arba daugiau
nėra debesų žemiau 1500 m ir nėra kamuolinių lietaus debesų

TAF: SBBU 161600Z 1618/1706 04007KT CAVOK TX36/1618Z TN27/1705Z RMK PDU

Orai ataskaitas ir orų prognozės (METAR, TAF).

turimą stotys yra geltonos ir raudonos taškus žemėlapyje.

Perkelti pele per norėdami pamatyti stoties vardą.

Tada spustelėkite, norėdami matyti oro stebėjimo ir prognozės.

Norėdami pakeisti žemėlapį: spustelėkite ant žalios mygtukų su juodo kryžiaus žemyn,; žalią mygtuką su brūkšneliu, jei norite nutolinti; arba žalių rodyklių gretimoms žemėlapius.


METAR-TAF: